Time;durP1;ratioP1;P1;durP2;ratioP2;P2;SDS_P1;SDS_P2;PMS_P1;PMS_P2;Temp;Humidity;BMP_temperature;BMP_pressure;BME280_temperature;BME280_humidity;BME280_pressure;Samples;Min_cycle;Max_cycle;Signal;HPM_P1;HPM_P2
2022/07/14 00:01:30;;;;;;;;;;;;;;;13.62;100.00;98754.79;1706812;83;21898;-70
2022/07/14 00:03:56;;;;;;;;;;;;;;;13.53;100.00;98752.78;1706501;84;20125;-70
2022/07/14 00:06:28;;;;;;;;;;;;;;;13.45;100.00;98754.55;1699875;83;20595;-71
2022/07/14 00:08:55;;;;;;;;;;;;;;;13.38;100.00;98757.11;1678194;84;20094;-70
2022/07/14 00:11:24;;;;;;;;;;;;;;;13.34;100.00;98765.86;1697709;84;20460;-69
2022/07/14 00:13:54;;;;;;;;;;;;;;;13.29;100.00;98761.98;1699578;83;21501;-69
2022/07/14 00:16:25;;;;;;;;;;;;;;;13.24;100.00;98765.60;1690513;83;20087;-69
2022/07/14 00:18:52;;;;;;;;;;;;;;;13.19;100.00;98767.45;1727132;83;20715;-68
2022/07/14 00:21:24;;;;;;;;;;;;;;;13.15;100.00;98772.61;1707312;83;20458;-69
2022/07/14 00:23:51;;;;;;;;;;;;;;;13.10;100.00;98772.86;1727452;83;20123;-69
2022/07/14 00:26:22;;;;;;;;;;;;;;;13.07;100.00;98772.19;1727815;82;21045;-68
2022/07/14 00:28:45;;;;;;;;;;;;;;;13.03;100.00;98776.80;1726973;83;20071;-68
2022/07/14 00:31:17;;;;;;;;;;;;;;;13.00;100.00;98771.41;1727547;83;20435;-69
2022/07/14 00:33:46;;;;;;;;;;;;;;;12.98;100.00;98773.71;1706848;83;20099;-69
2022/07/14 00:36:18;;;;;;;;;;;;;;;12.93;100.00;98771.78;1726605;83;20118;-69
2022/07/14 00:38:46;;;;;;;;;;;;;;;12.88;100.00;98770.07;1727706;83;21904;-69
2022/07/14 00:41:16;;;;;;;;;;;;;;;12.82;100.00;98775.59;1727396;83;20170;-68
2022/07/14 00:43:46;;;;;;;;;;;;;;;12.79;100.00;98779.05;1730249;83;20151;-69
2022/07/14 00:46:19;;;;;;;;;;;;;;;12.76;100.00;98769.53;1705786;83;20138;-69
2022/07/14 00:48:44;;;;;;;;;;;;;;;12.75;100.00;98778.14;1704416;83;20082;-70
2022/07/14 00:51:12;;;;;;;;;;;;;;;12.75;100.00;98781.70;1723363;83;21076;-70
2022/07/14 00:53:44;;;;;;;;;;;;;;;12.77;100.00;98789.61;1717857;82;20101;-69
2022/07/14 00:56:12;;;;;;;;;;;;;;;12.78;100.00;98789.84;1698071;84;20142;-69
2022/07/14 00:58:44;;;;;;;;;;;;;;;12.77;100.00;98784.91;1678177;84;20113;-69
2022/07/14 01:01:10;;;;;;;;;;;;;;;12.77;100.00;98785.48;1698276;83;20145;-70
2022/07/14 01:03:39;;;;;;;;;;;;;;;12.74;100.00;98791.11;1698349;84;21583;-70
2022/07/14 01:06:05;;;;;;;;;;;;;;;12.72;100.00;98789.86;1698020;84;20097;-71
2022/07/14 01:08:37;;;;;;;;;;;;;;;12.67;100.00;98797.81;1698688;84;20120;-69
2022/07/14 01:11:08;;;;;;;;;;;;;;;12.62;100.00;98792.55;1678168;84;20192;-69
2022/07/14 01:13:36;;;;;;;;;;;;;;;12.58;100.00;98797.14;1698828;84;20444;-69
2022/07/14 01:16:06;;;;;;;;;;;;;;;12.55;100.00;98799.20;1698513;84;21188;-69
2022/07/14 01:18:36;;;;;;;;;;;;;;;12.53;100.00;98802.31;1698691;84;20164;-69
2022/07/14 01:21:05;;;;;;;;;;;;;;;12.52;100.00;98807.59;1715564;83;20122;-70
2022/07/14 01:23:35;;;;;;;;;;;;;;;12.49;100.00;98809.66;1698693;84;37899;-69
2022/07/14 01:26:11;;;;;;;;;;;;;;;12.46;100.00;98806.22;1678478;84;20122;-73
2022/07/14 01:28:40;;;;;;;;;;;;;;;12.43;100.00;98804.73;1698830;84;20138;-68
2022/07/14 01:31:11;;;;;;;;;;;;;;;12.41;100.00;98809.20;1698796;84;20132;-69
2022/07/14 01:33:40;;;;;;;;;;;;;;;12.41;100.00;98816.08;1698610;84;20102;-70
2022/07/14 01:36:08;;;;;;;;;;;;;;;12.40;100.00;98812.30;1698827;84;20421;-69
2022/07/14 01:38:35;;;;;;;;;;;;;;;12.38;100.00;98814.02;1698696;84;20098;-69
2022/07/14 01:41:04;;;;;;;;;;;;;;;12.35;100.00;98816.09;1698591;84;21108;-69
2022/07/14 01:43:35;;;;;;;;;;;;;;;12.34;100.00;98820.56;1698530;84;20408;-70
2022/07/14 01:46:03;;;;;;;;;;;;;;;12.33;100.00;98820.33;1678752;84;20137;-72
2022/07/14 01:48:33;;;;;;;;;;;;;;;12.31;100.00;98828.93;1679116;84;20112;-71
2022/07/14 01:51:02;;;;;;;;;;;;;;;12.30;100.00;98834.20;1698537;84;20120;-73
2022/07/14 01:53:30;;;;;;;;;;;;;;;12.27;100.00;98829.39;1698473;83;21149;-69
2022/07/14 01:56:03;;;;;;;;;;;;;;;12.28;100.00;98836.50;1698066;84;20211;-70
2022/07/14 01:58:29;;;;;;;;;;;;;;;12.30;100.00;98833.41;1702268;83;20455;-71
2022/07/14 02:03:43;;;;;;;;;;;;;;;12.28;100.00;98841.20;1698706;84;20094;-72
2022/07/14 02:06:11;;;;;;;;;;;;;;;12.26;100.00;98844.87;1705551;83;20892;-72
2022/07/14 02:08:39;;;;;;;;;;;;;;;12.23;100.00;98840.86;1714512;83;20943;-70
2022/07/14 02:13:56;;;;;;;;;;;;;;;12.24;100.00;98843.83;1714455;81;20081;-71
2022/07/14 02:16:23;;;;;;;;;;;;;;;12.23;100.00;98843.03;1714220;83;20442;-68
2022/07/14 02:18:56;;;;;;;;;;;;;;;12.23;100.00;98851.29;1714594;83;21045;-69
2022/07/14 02:21:24;;;;;;;;;;;;;;;12.22;100.00;98849.68;1713931;83;20102;-71
2022/07/14 02:23:51;;;;;;;;;;;;;;;12.22;100.00;98848.30;1727909;82;20425;-69
2022/07/14 02:26:19;;;;;;;;;;;;;;;12.23;100.00;98855.98;1717314;81;20476;-69
2022/07/14 02:28:53;;;;;;;;;;;;;;;12.23;100.00;98858.16;1714558;83;20085;-71
2022/07/14 02:31:21;;;;;;;;;;;;;;;12.24;100.00;98865.84;1713665;83;21240;-70
2022/07/14 02:33:50;;;;;;;;;;;;;;;12.22;100.00;98868.14;1714281;83;20109;-73
2022/07/14 02:36:18;;;;;;;;;;;;;;;12.21;100.00;98880.29;1714296;83;20097;-74
2022/07/14 02:38:46;;;;;;;;;;;;;;;12.22;100.00;98881.90;1714573;83;20109;-72
2022/07/14 02:41:17;;;;;;;;;;;;;;;12.21;100.00;98881.67;1714602;83;20150;-70
2022/07/14 02:43:41;;;;;;;;;;;;;;;12.19;100.00;98881.20;1713075;83;21159;-81
2022/07/14 02:46:12;;;;;;;;;;;;;;;12.20;100.00;98888.31;1713611;83;20139;-82
2022/07/14 02:48:41;;;;;;;;;;;;;;;12.22;100.00;98892.91;1714782;83;20085;-83
2022/07/14 02:51:09;;;;;;;;;;;;;;;12.20;100.00;98891.88;1714595;83;20160;-77
2022/07/14 02:53:37;;;;;;;;;;;;;;;12.20;100.00;98895.20;1714510;82;20160;-79
2022/07/14 02:56:06;;;;;;;;;;;;;;;12.21;100.00;98892.67;1714785;82;21890;-86
2022/07/14 02:58:39;;;;;;;;;;;;;;;12.23;100.00;98901.39;1712421;83;20140;-81
2022/07/14 03:01:08;;;;;;;;;;;;;;;12.24;100.00;98896.12;1714657;82;20126;-83
2022/07/14 03:03:36;;;;;;;;;;;;;;;12.27;100.00;98904.27;1714520;83;20093;-76
2022/07/14 03:06:12;;;;;;;;;;;;;;;12.28;100.00;98899.80;1717442;82;20128;-76
2022/07/14 03:08:39;;;;;;;;;;;;;;;12.32;100.00;98897.16;1723942;83;21133;-73
2022/07/14 03:11:11;;;;;;;;;;;;;;;12.35;100.00;98900.03;1700129;83;20162;-72
2022/07/14 03:13:42;;;;;;;;;;;;;;;12.39;100.00;98909.78;1724560;83;21243;-81
2022/07/14 03:16:09;;;;;;;;;;;;;;;12.42;100.00;98908.52;1724934;83;20188;-81
2022/07/14 03:18:41;;;;;;;;;;;;;;;12.46;100.00;98911.39;1724699;83;20144;-74
2022/07/14 03:21:08;;;;;;;;;;;;;;;12.52;100.00;98910.02;1724522;83;21177;-67
2022/07/14 03:23:35;;;;;;;;;;;;;;;12.56;100.00;98911.75;1724809;83;20121;-74
2022/07/14 03:26:03;;;;;;;;;;;;;;;12.62;100.00;98913.70;1724593;83;20133;-68
2022/07/14 03:28:32;;;;;;;;;;;;;;;12.70;100.00;98919.66;1700111;83;20439;-67
2022/07/14 03:30:59;;;;;;;;;;;;;;;12.74;100.00;98918.37;1745211;82;20599;-67
2022/07/14 03:33:26;;;;;;;;;;;;;;;12.77;100.00;98918.48;1754128;82;21153;-67
2022/07/14 03:35:53;;;;;;;;;;;;;;;12.85;100.00;98923.64;1754386;81;20098;-67
2022/07/14 03:38:20;;;;;;;;;;;;;;;12.89;100.00;98921.80;1754415;82;20401;-67
2022/07/14 03:40:49;;;;;;;;;;;;;;;12.95;100.00;98927.88;1754722;81;20443;-67
2022/07/14 03:43:16;;;;;;;;;;;;;;;13.00;100.00;98930.41;1753762;82;20425;-66
2022/07/14 03:45:43;;;;;;;;;;;;;;;13.05;100.00;98927.41;1753505;82;21063;-72
2022/07/14 03:48:11;;;;;;;;;;;;;;;13.09;100.00;98926.37;1753307;81;20114;-73
2022/07/14 03:50:41;;;;;;;;;;;;;;;13.16;100.00;98928.00;1754336;81;20091;-70
2022/07/14 03:53:08;;;;;;;;;;;;;;;13.20;100.00;98927.53;1750473;81;20222;-67
2022/07/14 03:55:35;;;;;;;;;;;;;;;13.27;100.00;98927.52;1724287;82;20125;-66
2022/07/14 03:58:02;;;;;;;;;;;;;;;13.31;100.00;98925.06;1724637;83;21135;-66
2022/07/14 04:00:29;;;;;;;;;;;;;;;13.37;100.00;98934.70;1724506;83;20121;-69
2022/07/14 04:02:56;;;;;;;;;;;;;;;13.44;100.00;98935.48;1724515;82;20157;-72
2022/07/14 04:05:27;;;;;;;;;;;;;;;13.50;100.00;98935.47;1724661;82;20137;-70
2022/07/14 04:07:57;;;;;;;;;;;;;;;13.58;100.00;98931.77;1723869;83;20097;-70
2022/07/14 04:10:25;;;;;;;;;;;;;;;13.64;100.00;98927.61;1706611;83;21159;-70
2022/07/14 04:12:52;;;;;;;;;;;;;;;13.72;100.00;98933.55;1724534;83;20145;-70
2022/07/14 04:15:19;;;;;;;;;;;;;;;13.83;100.00;98933.85;1733434;82;20085;-70
2022/07/14 04:17:47;;;;;;;;;;;;;;;13.90;100.00;98928.50;1718236;83;20118;-70
2022/07/14 04:20:14;;;;;;;;;;;;;;;13.97;100.00;98934.79;1718753;83;20469;-70
2022/07/14 04:22:42;;;;;;;;;;;;;;;14.02;100.00;98932.58;1719190;83;21164;-70
2022/07/14 04:25:12;;;;;;;;;;;;;;;14.11;100.00;98939.31;1718949;83;20152;-70
2022/07/14 04:27:39;;;;;;;;;;;;;;;14.18;100.00;98936.17;1718830;83;20121;-70
2022/07/14 04:30:08;;;;;;;;;;;;;;;14.25;100.00;98954.88;1718934;83;20121;-70
2022/07/14 04:32:34;;;;;;;;;;;;;;;14.34;100.00;98954.13;1718999;83;20089;-70
2022/07/14 04:35:03;;;;;;;;;;;;;;;14.41;100.00;98944.69;1718718;83;21093;-70
2022/07/14 04:37:29;;;;;;;;;;;;;;;14.49;100.00;98953.92;1719023;83;20466;-70
2022/07/14 04:39:58;;;;;;;;;;;;;;;14.59;100.00;98956.73;1718667;83;20178;-70
2022/07/14 04:42:24;;;;;;;;;;;;;;;14.66;100.00;98960.48;1719241;83;20137;-69
2022/07/14 04:44:50;;;;;;;;;;;;;;;14.75;100.00;98956.16;1719012;83;20085;-70
2022/07/14 04:47:18;;;;;;;;;;;;;;;14.85;100.00;98950.89;1718937;83;20122;-70
2022/07/14 04:52:32;;;;;;;;;;;;;;;15.02;100.00;98937.23;1718179;83;20196;-70
2022/07/14 04:55:00;;;;;;;;;;;;;;;15.14;100.00;98943.23;1722815;82;20424;-70
2022/07/14 04:57:45;;;;;;;;;;;;;;;15.23;100.00;98949.95;1724446;83;20448;-71
2022/07/14 05:00:14;;;;;;;;;;;;;;;15.34;100.00;98960.08;1724232;83;21803;-71
2022/07/14 05:02:41;;;;;;;;;;;;;;;15.44;100.00;98953.19;1699832;83;20093;-70
2022/07/14 05:05:08;;;;;;;;;;;;;;;15.57;100.00;98960.80;1724518;83;20678;-71
2022/07/14 05:07:36;;;;;;;;;;;;;;;15.66;100.00;98955.83;1707893;83;20110;-71
2022/07/14 05:10:04;;;;;;;;;;;;;;;15.75;100.00;98953.64;1697896;84;20114;-71
2022/07/14 05:12:33;;;;;;;;;;;;;;;15.82;100.00;98957.36;1698707;84;22598;-71
2022/07/14 05:15:00;;;;;;;;;;;;;;;15.87;100.00;98959.62;1698486;84;20436;-71
2022/07/14 05:17:27;;;;;;;;;;;;;;;15.92;100.00;98958.74;1698556;84;20142;-72
2022/07/14 05:19:55;;;;;;;;;;;;;;;15.97;100.00;98957.64;1698498;84;20154;-71
2022/07/14 05:22:23;;;;;;;;;;;;;;;16.03;100.00;98966.67;1698361;84;20085;-71
2022/07/14 05:24:49;;;;;;;;;;;;;;;16.12;100.00;98965.06;1698526;84;21195;-71
2022/07/14 05:27:16;;;;;;;;;;;;;;;16.17;100.00;98962.77;1698776;84;20168;-71
2022/07/14 05:29:43;;;;;;;;;;;;;;;16.24;100.00;98960.72;1698609;84;20136;-72
2022/07/14 05:32:10;;;;;;;;;;;;;;;16.36;100.00;98963.31;1698242;84;20469;-72
2022/07/14 05:34:41;;;;;;;;;;;;;;;16.51;100.00;98963.79;1698331;84;20073;-72
2022/07/14 05:37:08;;;;;;;;;;;;;;;16.64;100.00;98974.69;1698947;84;21135;-71
2022/07/14 05:39:34;;;;;;;;;;;;;;;16.74;100.00;98975.48;1698490;84;20085;-71
2022/07/14 05:42:01;;;;;;;;;;;;;;;16.82;100.00;98966.89;1698831;84;20117;-71
2022/07/14 05:44:28;;;;;;;;;;;;;;;16.87;100.00;98973.30;1698434;84;21087;-71
2022/07/14 05:46:54;;;;;;;;;;;;;;;16.93;100.00;98967.66;1698658;84;20110;-72
2022/07/14 05:49:21;;;;;;;;;;;;;;;16.98;100.00;98965.95;1698739;84;21173;-72
2022/07/14 05:51:47;;;;;;;;;;;;;;;16.98;100.00;98966.75;1698870;84;20445;-71
2022/07/14 05:54:14;;;;;;;;;;;;;;;16.98;100.00;98970.91;1698539;83;20077;-71
2022/07/14 05:56:41;;;;;;;;;;;;;;;17.02;100.00;98954.33;1698911;84;20085;-71
2022/07/14 05:59:07;;;;;;;;;;;;;;;17.12;100.00;98962.02;1699040;84;20460;-72
2022/07/14 06:01:35;;;;;;;;;;;;;;;17.25;100.00;98960.62;1698871;84;20138;-71
2022/07/14 06:04:02;;;;;;;;;;;;;;;17.35;100.00;98959.16;1698716;84;20085;-71
2022/07/14 06:06:30;;;;;;;;;;;;;;;17.45;100.00;98966.83;1698795;84;20439;-71
2022/07/14 06:08:59;;;;;;;;;;;;;;;17.59;100.00;98974.55;1698692;84;20452;-71
2022/07/14 06:11:25;;;;;;;;;;;;;;;17.78;100.00;98976.62;1698770;84;20089;-71
2022/07/14 06:13:52;;;;;;;;;;;;;;;17.89;100.00;98984.29;1699115;84;21755;-71
2022/07/14 06:16:19;;;;;;;;;;;;;;;17.93;100.00;98978.16;1698620;84;20114;-71
2022/07/14 06:18:45;;;;;;;;;;;;;;;17.98;100.00;98978.63;1698848;84;20093;-71
2022/07/14 06:21:13;;;;;;;;;;;;;;;18.10;100.00;98976.98;1698813;84;20109;-74
2022/07/14 06:23:41;;;;;;;;;;;;;;;18.24;100.00;98968.59;1701704;83;20473;-72
2022/07/14 06:26:09;;;;;;;;;;;;;;;18.39;100.00;98972.54;1706357;83;21241;-74
2022/07/14 06:28:36;;;;;;;;;;;;;;;18.49;100.00;98967.65;1703077;83;20128;-72
2022/07/14 06:31:03;;;;;;;;;;;;;;;18.57;100.00;98977.45;1695675;84;20136;-74
2022/07/14 06:33:30;;;;;;;;;;;;;;;18.63;100.00;98975.95;1695721;84;20117;-72
2022/07/14 06:35:59;;;;;;;;;;;;;;;18.70;100.00;98971.25;1711718;83;20091;-72
2022/07/14 06:38:25;;;;;;;;;;;;;;;18.82;98.49;98971.55;1728198;83;22132;-72
2022/07/14 06:40:51;;;;;;;;;;;;;;;18.96;99.47;98972.27;1727926;83;20083;-71
2022/07/14 06:43:17;;;;;;;;;;;;;;;19.09;95.52;98966.57;1728355;83;20095;-72
2022/07/14 06:45:52;;;;;;;;;;;;;;;19.13;91.37;98974.35;1726406;83;20477;-76
2022/07/14 06:48:18;;;;;;;;;;;;;;;19.11;96.62;98969.17;1700303;83;20117;-86
2022/07/14 06:50:45;;;;;;;;;;;;;;;19.24;100.00;98971.05;1695797;84;22192;-88
2022/07/14 06:53:12;;;;;;;;;;;;;;;19.46;97.30;98973.38;1696072;83;20152;-74
2022/07/14 06:55:38;;;;;;;;;;;;;;;19.59;88.31;98971.90;1698964;84;20440;-80
2022/07/14 06:58:05;;;;;;;;;;;;;;;19.59;90.14;98979.45;1698861;84;20292;-80
2022/07/14 07:00:31;;;;;;;;;;;;;;;19.59;92.16;98975.27;1697409;84;20467;-81
2022/07/14 07:02:58;;;;;;;;;;;;;;;19.64;89.09;98981.24;1697964;83;21102;-73
2022/07/14 07:08:13;;;;;;;;;;;;;;;19.86;92.45;98982.73;1698937;83;20152;-73
2022/07/14 07:10:56;;;;;;;;;;;;;;;20.10;92.63;98979.26;1698806;84;20105;-73
2022/07/14 07:13:30;;;;;;;;;;;;;;;20.23;88.97;98976.88;1698801;84;20122;-74
2022/07/14 07:15:54;;;;;;;;;;;;;;;20.21;89.94;98989.84;1698577;83;21137;-74
2022/07/14 07:18:21;;;;;;;;;;;;;;;20.18;89.73;98991.23;1698941;84;20086;-73
2022/07/14 07:20:47;;;;;;;;;;;;;;;20.25;92.46;98982.27;1698843;83;20141;-74
2022/07/14 07:23:14;;;;;;;;;;;;;;;20.46;88.48;98998.88;1698878;84;20215;-73
2022/07/14 07:25:40;;;;;;;;;;;;;;;20.56;89.51;98991.92;1698905;84;20447;-73
2022/07/14 07:28:07;;;;;;;;;;;;;;;20.64;88.05;98992.73;1698776;84;21137;-73
2022/07/14 07:30:34;;;;;;;;;;;;;;;20.73;87.22;98987.56;1719754;83;20260;-73
2022/07/14 07:33:02;;;;;;;;;;;;;;;20.83;84.48;98985.36;1727736;83;20123;-74
2022/07/14 07:35:28;;;;;;;;;;;;;;;20.75;82.88;98984.58;1727903;83;20132;-74
2022/07/14 07:37:54;;;;;;;;;;;;;;;20.62;85.08;98993.13;1727883;83;20099;-74
2022/07/14 07:40:24;;;;;;;;;;;;;;;20.48;84.34;98996.48;1727785;83;21238;-74
2022/07/14 07:42:52;;;;;;;;;;;;;;;20.40;87.56;98991.48;1728002;83;20115;-75
2022/07/14 07:45:22;;;;;;;;;;;;;;;20.39;84.63;98991.29;1727861;82;20099;-75
2022/07/14 07:47:56;;;;;;;;;;;;;;;20.48;86.73;98988.92;1727975;83;20178;-74
2022/07/14 07:50:27;;;;;;;;;;;;;;;20.66;86.84;99001.50;1726899;82;20071;-74
2022/07/14 07:52:50;;;;;;;;;;;;;;;20.72;76.84;98985.38;1727181;81;20509;-76
2022/07/14 07:55:17;;;;;;;;;;;;;;;20.81;78.80;98993.33;1698867;84;20144;-73
2022/07/14 07:57:46;;;;;;;;;;;;;;;20.98;77.67;98989.75;1698726;84;20129;-92
2022/07/14 08:00:13;;;;;;;;;;;;;;;21.14;79.18;98988.55;1698765;84;20461;-85
2022/07/14 08:02:48;;;;;;;;;;;;;;;21.25;78.33;98996.34;1698801;83;20086;-72
2022/07/14 08:05:22;;;;;;;;;;;;;;;21.26;73.99;99004.32;1698620;83;21139;-75
2022/07/14 08:07:49;;;;;;;;;;;;;;;21.32;75.85;98991.55;1698965;84;20464;-75
2022/07/14 08:10:15;;;;;;;;;;;;;;;21.40;76.52;98995.10;1698778;84;20121;-75
2022/07/14 08:12:43;;;;;;;;;;;;;;;21.45;74.10;98993.90;1698712;84;20113;-75
2022/07/14 08:15:09;;;;;;;;;;;;;;;21.39;75.60;98984.53;1698764;84;20132;-86
2022/07/14 08:17:41;;;;;;;;;;;;;;;21.43;76.82;98999.28;1698737;83;21131;-87
2022/07/14 08:20:12;;;;;;;;;;;;;;;21.58;78.30;98994.47;1678427;84;20396;-76
2022/07/14 08:22:38;;;;;;;;;;;;;;;21.87;79.38;98997.98;1698283;84;20129;-80
2022/07/14 08:25:10;;;;;;;;;;;;;;;22.25;76.99;99003.81;1698983;83;20724;-86
2022/07/14 08:27:38;;;;;;;;;;;;;;;22.52;72.41;99000.67;1698097;84;20118;-87
2022/07/14 08:30:09;;;;;;;;;;;;;;;22.66;69.58;99005.35;1679248;83;20098;-77
2022/07/14 08:32:46;;;;;;;;;;;;;;;22.76;70.75;99006.48;1713742;83;20130;-75
2022/07/14 08:35:14;;;;;;;;;;;;;;;22.87;70.70;99001.64;1698878;83;20424;-77
2022/07/14 08:37:41;;;;;;;;;;;;;;;23.03;71.82;99007.52;1698720;84;20807;-78
2022/07/14 08:40:11;;;;;;;;;;;;;;;23.25;70.64;99003.30;1713685;83;20118;-77
2022/07/14 08:42:41;;;;;;;;;;;;;;;23.53;71.82;99002.27;1720787;81;21854;-91
2022/07/14 08:45:10;;;;;;;;;;;;;;;23.64;66.74;98993.75;1699174;83;20450;-87
2022/07/14 08:47:38;;;;;;;;;;;;;;;23.58;68.72;99006.62;1698687;84;20261;-84
2022/07/14 08:50:11;;;;;;;;;;;;;;;23.57;67.52;99004.42;1697909;84;20131;-80
2022/07/14 08:52:38;;;;;;;;;;;;;;;23.70;64.62;99002.66;1702603;83;20122;-84
2022/07/14 08:55:07;;;;;;;;;;;;;;;23.85;64.31;98996.89;1700582;83;20073;-82
2022/07/14 08:57:36;;;;;;;;;;;;;;;23.83;64.60;98995.11;1700843;84;20101;-78
2022/07/14 09:00:11;;;;;;;;;;;;;;;23.75;65.75;98999.20;1719535;82;20430;-86
2022/07/14 09:02:38;;;;;;;;;;;;;;;23.80;65.19;98997.34;1728031;82;20130;-85
2022/07/14 09:05:07;;;;;;;;;;;;;;;23.80;62.79;99002.95;1727241;82;20442;-85
2022/07/14 09:07:35;;;;;;;;;;;;;;;23.81;63.67;99001.14;1728140;83;21756;-88
2022/07/14 09:10:12;;;;;;;;;;;;;;;24.02;67.89;99009.30;1727559;81;20338;-80
2022/07/14 09:12:37;;;;;;;;;;;;;;;24.21;63.69;98998.66;1727658;82;20083;-80
2022/07/14 09:17:55;;;;;;;;;;;;;;;24.30;65.12;98998.94;1702654;83;20091;-79
2022/07/14 09:20:36;;;;;;;;;;;;;;;24.49;63.47;98998.88;1727985;82;21113;-82
2022/07/14 09:23:03;;;;;;;;;;;;;;;24.82;64.74;99000.80;1727953;83;20087;-84
2022/07/14 09:25:34;;;;;;;;;;;;;;;25.17;59.73;98988.80;1727269;82;20119;-83
2022/07/14 09:28:02;;;;;;;;;;;;;;;25.24;59.65;98999.92;1727691;82;20118;-92
2022/07/14 09:30:29;;;;;;;;;;;;;;;25.25;58.14;98991.67;1727876;83;20130;-83
2022/07/14 09:33:01;;;;;;;;;;;;;;;25.13;60.70;99002.11;1727630;82;21535;-95
2022/07/14 09:35:38;;;;;;;;;;;;;;;25.21;59.44;98993.75;1707081;83;20154;-93
2022/07/14 09:38:22;;;;;;;;;;;;;;;25.33;58.03;98991.73;1722227;82;20174;-80
2022/07/14 09:40:50;;;;;;;;;;;;;;;25.40;59.10;98990.81;1727701;83;20160;-87
2022/07/14 09:43:20;;;;;;;;;;;;;;;25.33;57.84;98991.73;1727132;83;20570;-88
2022/07/14 09:45:49;;;;;;;;;;;;;;;25.26;56.08;98988.44;1720294;83;21259;-83
2022/07/14 09:48:18;;;;;;;;;;;;;;;25.23;58.14;98998.33;1727114;82;20103;-86
2022/07/14 09:50:54;;;;;;;;;;;;;;;25.29;56.63;98991.00;1727800;82;20414;-87
2022/07/14 09:53:26;;;;;;;;;;;;;;;25.23;55.94;98990.70;1721789;83;20093;-81
2022/07/14 09:56:03;;;;;;;;;;;;;;;24.95;55.30;99000.36;1708065;82;20093;-88
2022/07/14 09:58:34;;;;;;;;;;;;;;;24.61;57.54;99009.53;1711115;84;21165;-83
2022/07/14 10:01:18;;;;;;;;;;;;;;;24.59;56.54;99003.55;1700054;83;20460;-80
2022/07/14 10:03:49;;;;;;;;;;;;;;;24.87;58.20;99006.51;1706784;83;20071;-84
2022/07/14 10:06:20;;;;;;;;;;;;;;;25.29;55.73;99013.47;1727105;83;20095;-85
2022/07/14 10:08:57;;;;;;;;;;;;;;;25.71;55.40;99009.72;1730772;82;20118;-83
2022/07/14 10:11:27;;;;;;;;;;;;;;;25.89;53.34;99007.36;1754641;82;21143;-86
2022/07/14 10:13:53;;;;;;;;;;;;;;;25.96;52.36;99007.22;1754169;82;20417;-84
2022/07/14 10:16:21;;;;;;;;;;;;;;;25.85;53.71;99013.66;1754652;82;20159;-85
2022/07/14 10:18:47;;;;;;;;;;;;;;;25.88;52.00;99004.36;1754550;82;20253;-86
2022/07/14 10:21:15;;;;;;;;;;;;;;;25.97;53.01;99003.97;1753929;82;20153;-84
2022/07/14 10:23:42;;;;;;;;;;;;;;;25.93;51.72;99006.67;1753504;82;21146;-87
2022/07/14 10:26:10;;;;;;;;;;;;;;;25.65;52.14;99008.81;1754294;82;20130;-84
2022/07/14 10:28:41;;;;;;;;;;;;;;;25.19;53.89;99017.26;1754535;81;20083;-84
2022/07/14 10:31:31;;;;;;;;;;;;;;;24.84;55.64;99018.62;1753259;81;20405;-85
2022/07/14 10:34:01;;;;;;;;;;;;;;;24.60;57.32;99013.55;1754213;82;20118;-82
2022/07/14 10:36:34;;;;;;;;;;;;;;;24.49;56.41;99019.92;1752586;82;22157;-85
2022/07/14 10:39:28;;;;;;;;;;;;;;;24.50;56.29;99013.09;1729451;82;20114;-74
2022/07/14 10:42:10;;;;;;;;;;;;;;;24.87;58.20;99015.72;1754727;82;20173;-84
2022/07/14 10:44:37;;;;;;;;;;;;;;;25.14;57.28;99015.73;1751862;82;20437;-79
2022/07/14 10:47:10;;;;;;;;;;;;;;;25.22;53.04;99023.43;1754742;82;20122;-75
2022/07/14 10:50:15;;;;;;;;;;;;;;;25.20;53.51;99018.23;1723252;83;21166;-75
2022/07/14 10:52:54;;;;;;;;;;;;;;;25.14;51.41;99016.34;1724700;83;20077;-76
2022/07/14 10:55:30;;;;;;;;;;;;;;;25.33;51.85;99007.19;1725091;83;20085;-76
2022/07/14 10:58:04;;;;;;;;;;;;;;;25.63;52.88;98992.95;1724859;83;20178;-76
2022/07/14 11:00:41;;;;;;;;;;;;;;;25.67;52.55;99014.00;1724608;82;20169;-76
2022/07/14 11:03:24;;;;;;;;;;;;;;;25.73;52.69;99011.48;1722501;83;21837;-76
2022/07/14 11:06:05;;;;;;;;;;;;;;;25.95;50.20;99017.67;1724507;82;20097;-76
2022/07/14 11:08:34;;;;;;;;;;;;;;;26.17;46.66;99008.16;1724985;82;20118;-75
2022/07/14 11:11:17;;;;;;;;;;;;;;;26.44;48.13;99012.84;1709763;83;20117;-75
2022/07/14 11:14:06;;;;;;;;;;;;;;;26.71;48.39;99010.59;1703733;84;20212;-75
2022/07/14 11:16:50;;;;;;;;;;;;;;;26.82;47.09;99003.31;1703426;83;21180;-74
2022/07/14 11:19:26;;;;;;;;;;;;;;;26.54;46.86;99007.60;1726076;83;20115;-73
2022/07/14 11:22:16;;;;;;;;;;;;;;;26.01;48.88;99009.50;1695316;83;20085;-74
2022/07/14 11:24:49;;;;;;;;;;;;;;;25.91;49.51;99004.91;1733568;83;20469;-75
2022/07/14 11:27:30;;;;;;;;;;;;;;;26.27;48.72;99002.92;1733687;82;20446;-75
2022/07/14 11:29:59;;;;;;;;;;;;;;;26.76;46.89;99003.66;1733590;83;21603;-77
2022/07/14 11:32:36;;;;;;;;;;;;;;;27.06;42.22;99005.38;1709957;82;20083;-75
2022/07/14 11:38:19;;;;;;;;;;;;;;;26.96;43.54;99015.67;1733603;83;20465;-74
2022/07/14 11:40:54;;;;;;;;;;;;;;;27.14;46.62;99011.02;1705852;83;20174;-73
2022/07/14 11:43:35;;;;;;;;;;;;;;;27.48;42.51;99020.39;1674425;84;20473;-73
2022/07/14 11:46:10;;;;;;;;;;;;;;;27.35;42.77;99018.11;1703224;84;20203;-74
2022/07/14 11:49:00;;;;;;;;;;;;;;;27.17;43.08;99027.02;1718285;83;20222;-73
2022/07/14 11:51:29;;;;;;;;;;;;;;;27.21;41.07;99010.81;1731699;82;20585;-73
2022/07/14 11:53:58;;;;;;;;;;;;;;;27.32;43.01;99014.77;1732244;83;20333;-73
2022/07/14 11:56:26;;;;;;;;;;;;;;;27.54;42.36;99008.14;1732344;83;21077;-74
2022/07/14 11:58:53;;;;;;;;;;;;;;;27.70;41.06;99015.01;1732244;83;20126;-73
2022/07/14 12:01:41;;;;;;;;;;;;;;;27.61;43.16;99018.46;1713775;83;20465;-73
2022/07/14 12:04:20;;;;;;;;;;;;;;;27.30;41.25;99010.37;1731677;82;20182;-73
2022/07/14 12:06:45;;;;;;;;;;;;;;;27.12;41.79;99012.87;1732024;82;20163;-73
2022/07/14 12:09:24;;;;;;;;;;;;;;;27.25;41.35;99010.11;1732298;82;21090;-74
2022/07/14 12:11:52;;;;;;;;;;;;;;;27.50;40.05;99021.53;1731543;82;20281;-73
2022/07/14 12:14:25;;;;;;;;;;;;;;;27.78;36.77;99011.52;1714082;83;20139;-73
2022/07/14 12:16:55;;;;;;;;;;;;;;;27.85;37.42;99015.55;1732080;82;20182;-74
2022/07/14 12:19:31;;;;;;;;;;;;;;;28.00;37.05;98996.82;1718470;83;20204;-77
2022/07/14 12:22:03;;;;;;;;;;;;;;;28.24;35.45;99013.06;1702953;83;20677;-72
2022/07/14 12:24:34;;;;;;;;;;;;;;;28.38;34.06;99023.73;1701972;84;20112;-73
2022/07/14 12:27:08;;;;;;;;;;;;;;;28.29;35.05;99013.75;1703985;84;20084;-71
2022/07/14 12:29:37;;;;;;;;;;;;;;;28.25;34.42;99013.23;1701538;84;20530;-71
2022/07/14 12:32:04;;;;;;;;;;;;;;;28.35;35.53;99011.92;1702111;84;20204;-72
2022/07/14 12:34:30;;;;;;;;;;;;;;;28.57;35.67;99015.69;1701831;83;21139;-71
2022/07/14 12:37:05;;;;;;;;;;;;;;;28.67;34.89;99012.37;1685095;84;20141;-83
2022/07/14 12:39:35;;;;;;;;;;;;;;;28.69;35.12;99010.67;1703349;84;20173;-77
2022/07/14 12:42:03;;;;;;;;;;;;;;;28.74;34.77;99005.88;1708698;83;20325;-80
2022/07/14 12:44:37;;;;;;;;;;;;;;;28.71;34.41;99022.93;1710235;83;20154;-74
2022/07/14 12:47:16;;;;;;;;;;;;;;;28.79;33.95;99022.88;1711923;82;21311;-77
2022/07/14 12:49:46;;;;;;;;;;;;;;;28.96;34.16;99021.52;1703262;84;20156;-74
2022/07/14 12:52:21;;;;;;;;;;;;;;;29.22;34.78;99025.91;1703059;84;20160;-75
2022/07/14 12:54:48;;;;;;;;;;;;;;;29.48;33.97;99028.06;1702661;84;20180;-75
2022/07/14 12:57:22;;;;;;;;;;;;;;;29.50;34.88;99026.20;1702783;84;20144;-75
2022/07/14 12:59:56;;;;;;;;;;;;;;;29.41;34.13;99031.16;1702539;84;21170;-74
2022/07/14 13:02:24;;;;;;;;;;;;;;;29.32;35.12;99019.73;1684351;84;20180;-73
2022/07/14 13:04:54;;;;;;;;;;;;;;;29.31;34.30;99035.11;1703292;83;20176;-74
2022/07/14 13:07:38;;;;;;;;;;;;;;;29.18;33.82;99031.51;1702179;84;20851;-74
2022/07/14 13:10:23;;;;;;;;;;;;;;;28.95;34.34;99035.48;1682068;84;20151;-75
2022/07/14 13:12:51;;;;;;;;;;;;;;;28.92;34.32;99035.77;1697240;84;21838;-72